Time;durP1;ratioP1;P1;durP2;ratioP2;P2;SDS_P1;SDS_P2;PMS_P1;PMS_P2;Temp;Humidity;BMP_temperature;BMP_pressure;BME280_temperature;BME280_humidity;BME280_pressure;Samples;Min_cycle;Max_cycle;Signal;HPM_P1;HPM_P2
2023/01/08 00:01:09;;;;;;;44.13;28.83;;;;;;;4.03;58.21;95438.44;5022334;28;20293;-64
2023/01/08 00:03:36;;;;;;;34.13;26.00;;;;;;;4.12;57.78;95437.00;4998704;28;20214;-64
2023/01/08 00:06:03;;;;;;;39.97;25.20;;;;;;;4.16;58.02;95431.47;5017665;28;20227;-63
2023/01/08 00:08:30;;;;;;;38.53;31.17;;;;;;;3.93;59.25;95430.41;4979369;28;20219;-63
2023/01/08 00:10:56;;;;;;;43.00;30.20;;;;;;;4.02;59.09;95428.13;4987965;28;20230;-64
2023/01/08 00:13:21;;;;;;;46.83;32.57;;;;;;;4.09;58.67;95429.38;4992287;28;20239;-64
2023/01/08 00:15:47;;;;;;;48.87;34.27;;;;;;;3.84;59.47;95432.78;4981909;28;20187;-64
2023/01/08 00:18:12;;;;;;;48.20;35.67;;;;;;;3.88;60.12;95431.66;4996486;28;20223;-64
2023/01/08 00:20:41;;;;;;;42.80;32.27;;;;;;;4.00;58.86;95430.00;4995168;28;20234;-64
2023/01/08 00:23:17;;;;;;;40.30;31.00;;;;;;;4.04;58.55;95415.88;4986427;28;20223;-64
2023/01/08 00:25:43;;;;;;;41.43;28.63;;;;;;;4.05;58.43;95423.56;4990217;28;20232;-63
2023/01/08 00:28:08;;;;;;;41.00;30.80;;;;;;;3.83;58.71;95418.13;4994960;28;20258;-63
2023/01/08 00:30:35;;;;;;;37.17;30.87;;;;;;;3.78;59.12;95431.41;4986522;28;20274;-64
2023/01/08 00:33:00;;;;;;;44.63;30.87;;;;;;;3.62;59.75;95420.34;4987684;28;20227;-63
2023/01/08 00:35:26;;;;;;;42.43;32.07;;;;;;;3.60;59.78;95422.19;4990529;28;20230;-64
2023/01/08 00:37:51;;;;;;;42.37;30.30;;;;;;;3.51;60.04;95421.03;4994397;28;20223;-63
2023/01/08 00:40:16;;;;;;;41.23;31.57;;;;;;;3.48;60.39;95422.06;4998709;28;20231;-63
2023/01/08 00:42:42;;;;;;;41.17;32.07;;;;;;;3.67;59.74;95428.69;5012304;28;20198;-64
2023/01/08 00:45:09;;;;;;;41.10;32.93;;;;;;;3.75;59.34;95429.03;5001899;28;20234;-64
2023/01/08 00:47:35;;;;;;;41.77;30.83;;;;;;;3.77;59.28;95419.34;4996644;28;20251;-64
2023/01/08 00:50:00;;;;;;;46.37;32.13;;;;;;;3.70;59.23;95429.31;4985847;28;20311;-64
2023/01/08 00:52:26;;;;;;;44.60;33.03;;;;;;;3.51;59.89;95421.88;4994295;28;20337;-64
2023/01/08 00:54:51;;;;;;;43.97;30.47;;;;;;;3.51;59.49;95421.88;5010773;28;20202;-64
2023/01/08 00:57:17;;;;;;;41.40;30.73;;;;;;;3.51;59.49;95423.63;5011709;28;20227;-63
2023/01/08 00:59:42;;;;;;;40.93;31.33;;;;;;;3.45;60.02;95424.03;5003125;28;20248;-64
2023/01/08 01:02:08;;;;;;;38.97;28.73;;;;;;;3.45;59.49;95439.66;5009784;28;20223;-64
2023/01/08 01:04:34;;;;;;;37.10;26.17;;;;;;;3.35;60.15;95434.19;5003457;28;20269;-64
2023/01/08 01:06:59;;;;;;;33.40;22.20;;;;;;;3.56;59.41;95431.97;5004857;28;20203;-64
2023/01/08 01:09:25;;;;;;;28.90;19.63;;;;;;;3.53;59.21;95424.38;4987273;28;20222;-63
2023/01/08 01:11:50;;;;;;;30.73;20.17;;;;;;;3.63;58.73;95427.19;5010016;28;20214;-64
2023/01/08 01:14:16;;;;;;;30.87;22.50;;;;;;;3.44;59.48;95425.78;5006974;28;20266;-64
2023/01/08 01:16:42;;;;;;;37.93;24.47;;;;;;;3.32;59.50;95424.00;5005533;28;20232;-63
2023/01/08 01:19:08;;;;;;;32.47;23.23;;;;;;;3.38;59.63;95415.78;5007224;28;20273;-64
2023/01/08 01:21:33;;;;;;;36.40;24.83;;;;;;;3.39;59.29;95414.84;5004454;28;20255;-64
2023/01/08 01:24:02;;;;;;;38.37;27.43;;;;;;;3.50;59.30;95414.16;5002058;28;20219;-64
2023/01/08 01:26:28;;;;;;;29.80;21.03;;;;;;;3.46;58.86;95421.31;4987476;28;20323;-64
2023/01/08 01:28:55;;;;;;;27.33;18.73;;;;;;;3.30;59.35;95415.44;5007215;28;20297;-64
2023/01/08 01:31:22;;;;;;;24.73;18.03;;;;;;;3.19;59.47;95425.69;5006346;28;20227;-64
2023/01/08 01:33:48;;;;;;;22.87;15.37;;;;;;;3.16;59.63;95431.91;5007937;28;20215;-64
2023/01/08 01:36:15;;;;;;;20.80;15.17;;;;;;;3.07;59.95;95420.34;5003131;28;20218;-64
2023/01/08 01:38:45;;;;;;;25.20;16.57;;;;;;;3.12;59.66;95421.81;5009788;28;20221;-64
2023/01/08 01:41:39;;;;;;;22.20;16.53;;;;;;;3.18;59.91;95421.41;5019327;28;20223;-63
2023/01/08 01:44:38;;;;;;;18.63;14.90;;;;;;;3.21;59.52;95413.44;4938671;28;20227;-64
2023/01/08 01:47:31;;;;;;;16.87;14.80;;;;;;;3.15;59.68;95413.81;4967962;28;20266;-63
2023/01/08 01:50:02;;;;;;;20.70;15.47;;;;;;;3.13;59.87;95413.94;4968847;28;20339;-63
2023/01/08 01:52:32;;;;;;;25.67;16.27;;;;;;;2.98;60.42;95414.88;4969140;28;20318;-63
2023/01/08 01:54:59;;;;;;;21.00;15.07;;;;;;;2.98;60.32;95412.28;4970135;28;20290;-62
2023/01/08 01:57:25;;;;;;;21.03;15.47;;;;;;;3.05;60.29;95406.63;4952945;28;20200;-62
2023/01/08 01:59:53;;;;;;;22.90;16.40;;;;;;;3.09;59.66;95413.25;4969242;28;20335;-62
2023/01/08 02:02:19;;;;;;;23.17;17.30;;;;;;;3.05;60.32;95405.78;4966507;28;20231;-62
2023/01/08 02:04:44;;;;;;;27.20;17.50;;;;;;;3.05;60.51;95406.63;4969542;28;20231;-63
2023/01/08 02:07:40;;;;;;;23.00;17.30;;;;;;;3.21;60.26;95408.25;4968520;28;20231;-63
2023/01/08 02:10:10;;;;;;;23.93;17.03;;;;;;;3.16;60.17;95400.75;4968531;28;20232;-62
2023/01/08 02:12:52;;;;;;;23.50;18.53;;;;;;;3.16;60.23;95392.94;4957104;28;20227;-62
2023/01/08 02:15:53;;;;;;;22.97;18.90;;;;;;;3.10;60.58;95398.50;4965151;28;20231;-62
2023/01/08 02:18:41;;;;;;;28.20;19.40;;;;;;;3.02;60.61;95398.16;4932755;29;20236;-63
2023/01/08 02:21:13;;;;;;;25.63;19.77;;;;;;;2.76;61.77;95392.84;4896488;29;20319;-62
2023/01/08 02:23:57;;;;;;;32.13;20.30;;;;;;;3.00;60.71;95400.03;4913742;29;20233;-63
2023/01/08 02:26:28;;;;;;;27.30;19.23;;;;;;;3.19;59.96;95384.13;4896152;29;20337;-63
2023/01/08 02:28:57;;;;;;;26.97;20.10;;;;;;;3.05;60.22;95391.03;4897424;29;20230;-63
2023/01/08 02:31:25;;;;;;;23.17;20.17;;;;;;;3.08;60.19;95390.81;4894134;29;20250;-63
2023/01/08 02:33:51;;;;;;;35.40;23.60;;;;;;;3.06;59.77;95389.25;4896635;29;20306;-63
2023/01/08 02:36:25;;;;;;;34.57;23.87;;;;;;;3.11;59.89;95383.78;4895911;29;20349;-64
2023/01/08 02:39:11;;;;;;;34.97;26.87;;;;;;;3.05;59.96;95388.44;4897734;29;20329;-64
2023/01/08 02:42:05;;;;;;;33.77;26.50;;;;;;;2.83;60.36;95380.28;4904638;29;20234;-64
2023/01/08 02:44:51;;;;;;;35.60;27.10;;;;;;;2.78;59.91;95383.19;4892710;29;20369;-63
2023/01/08 02:47:24;;;;;;;35.23;25.13;;;;;;;2.87;59.71;95379.19;4880717;29;20305;-63
2023/01/08 02:50:00;;;;;;;35.13;26.43;;;;;;;2.84;59.98;95375.03;4879564;29;20302;-64
2023/01/08 02:52:31;;;;;;;33.87;25.77;;;;;;;2.84;59.81;95371.59;4894283;29;20234;-64
2023/01/08 02:55:00;;;;;;;33.13;25.93;;;;;;;2.74;60.33;95368.72;4917648;28;20200;-64
2023/01/08 02:57:28;;;;;;;35.37;26.50;;;;;;;2.73;60.23;95374.03;4955449;28;20215;-64
2023/01/08 02:59:55;;;;;;;34.47;26.60;;;;;;;2.69;60.90;95370.78;4983255;28;20243;-64
2023/01/08 03:02:21;;;;;;;37.67;28.03;;;;;;;2.82;60.56;95379.47;4969451;28;20282;-64
2023/01/08 03:04:52;;;;;;;33.03;26.40;;;;;;;2.83;60.34;95375.97;4959377;28;20270;-64
2023/01/08 03:07:18;;;;;;;34.53;26.23;;;;;;;2.76;60.19;95379.03;4986998;28;20232;-63
2023/01/08 03:09:44;;;;;;;40.97;26.63;;;;;;;2.73;60.20;95387.03;4976088;28;20242;-63
2023/01/08 03:12:17;;;;;;;41.00;26.43;;;;;;;2.54;60.81;95389.88;4962965;28;20231;-63
2023/01/08 03:14:49;;;;;;;36.77;26.30;;;;;;;2.60;61.02;95386.94;4985851;28;20247;-63
2023/01/08 03:17:25;;;;;;;35.10;25.27;;;;;;;2.61;60.54;95381.63;4986027;28;20224;-63
2023/01/08 03:19:58;;;;;;;30.90;24.03;;;;;;;2.64;60.40;95378.00;4984839;28;20224;-63
2023/01/08 03:22:25;;;;;;;30.23;23.97;;;;;;;2.74;60.62;95392.09;5007981;28;20229;-63
2023/01/08 03:24:53;;;;;;;33.03;23.90;;;;;;;2.76;60.35;95384.22;5010660;28;20269;-63
2023/01/08 03:27:27;;;;;;;32.10;23.23;;;;;;;2.80;59.89;95389.13;5016532;28;20218;-64
2023/01/08 03:29:56;;;;;;;34.13;22.00;;;;;;;2.71;60.67;95381.91;5015920;28;20301;-64
2023/01/08 03:32:24;;;;;;;29.33;21.40;;;;;;;2.82;60.03;95381.25;5008360;28;20227;-64
2023/01/08 03:34:52;;;;;;;23.23;18.20;;;;;;;2.69;60.98;95385.53;5003863;28;20639;-64
2023/01/08 03:37:24;;;;;;;22.07;16.43;;;;;;;2.71;61.16;95381.06;5015112;28;20222;-63
2023/01/08 03:40:20;;;;;;;24.93;19.10;;;;;;;2.60;61.44;95379.16;5010312;28;20290;-63
2023/01/08 03:42:46;;;;;;;29.93;19.20;;;;;;;2.67;60.90;95384.78;5007058;28;20234;-63
2023/01/08 03:45:12;;;;;;;25.93;18.83;;;;;;;2.64;60.52;95376.25;5012501;28;20217;-63
2023/01/08 03:47:39;;;;;;;29.37;21.63;;;;;;;2.69;60.56;95375.13;5018249;28;20231;-64
2023/01/08 03:50:10;;;;;;;29.30;23.70;;;;;;;2.60;60.75;95372.19;5005258;28;20227;-64
2023/01/08 03:52:35;;;;;;;28.03;21.50;;;;;;;2.38;61.19;95375.28;5004192;28;20235;-64
2023/01/08 03:55:01;;;;;;;28.97;22.20;;;;;;;2.38;61.69;95379.63;5010076;28;20259;-64
2023/01/08 03:57:26;;;;;;;31.07;24.03;;;;;;;2.03;62.38;95377.38;5008026;28;20186;-64
2023/01/08 03:59:52;;;;;;;33.60;24.37;;;;;;;2.17;61.48;95373.97;5006113;28;20337;-64
2023/01/08 04:02:17;;;;;;;34.30;26.10;;;;;;;2.06;61.79;95372.03;5010854;28;20222;-63
2023/01/08 04:04:43;;;;;;;35.87;24.67;;;;;;;2.12;61.66;95371.66;5006624;28;20289;-63
2023/01/08 04:07:11;;;;;;;31.87;25.03;;;;;;;2.20;61.84;95379.81;5006683;28;20194;-63
2023/01/08 04:09:36;;;;;;;32.30;24.03;;;;;;;2.21;61.38;95378.03;5012315;28;20201;-63
2023/01/08 04:12:03;;;;;;;33.37;25.50;;;;;;;2.28;60.87;95381.94;5007689;28;20231;-63
2023/01/08 04:14:28;;;;;;;33.27;25.10;;;;;;;2.24;61.39;95384.81;5026060;28;20235;-64
2023/01/08 04:16:54;;;;;;;31.53;24.83;;;;;;;2.27;60.76;95377.66;5006967;28;20230;-63
2023/01/08 04:19:20;;;;;;;35.07;24.70;;;;;;;2.30;60.89;95379.22;5006448;28;20223;-63
2023/01/08 04:21:45;;;;;;;36.13;24.50;;;;;;;2.25;60.88;95376.94;5024080;28;20206;-63
2023/01/08 04:24:12;;;;;;;32.70;23.87;;;;;;;2.30;60.69;95382.69;4998843;28;20219;-63
2023/01/08 04:26:37;;;;;;;34.57;24.87;;;;;;;2.31;60.90;95383.50;4987103;28;20220;-63
2023/01/08 04:29:03;;;;;;;36.13;23.60;;;;;;;2.25;60.61;95386.50;4988621;28;20311;-63
2023/01/08 04:31:29;;;;;;;30.53;23.67;;;;;;;2.13;61.10;95381.09;4992704;28;20261;-63
2023/01/08 04:33:55;;;;;;;28.73;21.43;;;;;;;2.19;61.58;95385.06;4990464;28;20297;-64
2023/01/08 04:36:20;;;;;;;29.30;22.17;;;;;;;2.30;61.29;95387.88;5010696;28;20305;-64
2023/01/08 04:38:46;;;;;;;29.43;20.47;;;;;;;2.19;61.56;95391.13;5012177;28;20226;-64
2023/01/08 04:41:12;;;;;;;28.93;21.73;;;;;;;2.14;61.65;95387.13;5004630;28;20322;-64
2023/01/08 04:43:37;;;;;;;24.40;20.70;;;;;;;1.95;62.00;95376.97;5003954;28;20225;-64
2023/01/08 04:46:07;;;;;;;25.27;20.23;;;;;;;2.02;62.24;95380.06;5014202;28;20223;-63
2023/01/08 04:48:33;;;;;;;28.73;20.83;;;;;;;2.03;61.98;95389.50;5007427;28;20198;-63
2023/01/08 04:51:00;;;;;;;24.60;19.73;;;;;;;1.97;61.95;95375.16;5007889;28;20242;-63
2023/01/08 04:53:26;;;;;;;21.47;19.13;;;;;;;2.05;61.94;95383.31;5005484;28;20235;-63
2023/01/08 04:55:53;;;;;;;24.23;18.87;;;;;;;2.05;61.82;95388.50;5006967;28;20230;-63
2023/01/08 04:58:18;;;;;;;23.87;19.30;;;;;;;2.05;61.86;95392.84;4990251;28;20250;-63
2023/01/08 05:00:44;;;;;;;28.07;20.07;;;;;;;2.19;61.82;95385.94;4987342;28;20199;-63
2023/01/08 05:03:09;;;;;;;23.37;19.20;;;;;;;2.02;61.96;95387.84;5001201;28;20229;-63
2023/01/08 05:05:35;;;;;;;24.37;20.53;;;;;;;2.11;61.82;95395.94;5001282;28;20805;-63
2023/01/08 05:08:00;;;;;;;31.03;20.93;;;;;;;2.14;61.69;95392.31;5001836;28;20280;-63
2023/01/08 05:10:26;;;;;;;29.97;20.27;;;;;;;2.00;61.79;95395.72;5008584;28;20986;-64
2023/01/08 05:12:51;;;;;;;27.87;21.67;;;;;;;2.01;62.00;95394.81;5007746;28;20214;-63
2023/01/08 05:15:17;;;;;;;30.23;22.57;;;;;;;2.07;61.78;95391.84;5008594;28;20233;-63
2023/01/08 05:17:42;;;;;;;29.30;21.93;;;;;;;2.23;61.27;95396.94;5008084;28;20237;-63
2023/01/08 05:20:08;;;;;;;29.70;22.17;;;;;;;2.09;61.34;95396.94;5023242;28;20310;-63
2023/01/08 05:22:33;;;;;;;26.50;21.43;;;;;;;2.01;61.72;95388.78;4983892;28;20223;-63
2023/01/08 05:24:59;;;;;;;30.97;23.13;;;;;;;1.95;62.07;95385.63;4989588;28;20215;-63
2023/01/08 05:27:24;;;;;;;31.57;24.30;;;;;;;1.92;61.94;95393.56;5011040;28;20200;-63
2023/01/08 05:29:50;;;;;;;28.87;23.57;;;;;;;1.90;61.95;95390.25;5013561;28;20229;-63
2023/01/08 05:32:18;;;;;;;32.63;24.23;;;;;;;1.93;61.60;95391.81;5006880;28;20211;-63
2023/01/08 05:34:44;;;;;;;31.43;24.27;;;;;;;1.94;61.59;95393.47;5007580;28;20227;-63
2023/01/08 05:37:10;;;;;;;35.20;23.50;;;;;;;2.00;61.21;95393.13;5022042;28;20198;-63
2023/01/08 05:39:36;;;;;;;28.90;22.27;;;;;;;1.98;61.46;95398.41;5003739;28;20241;-63
2023/01/08 05:42:02;;;;;;;30.47;22.17;;;;;;;1.81;61.62;95395.94;5009815;28;20310;-62
2023/01/08 05:44:28;;;;;;;27.23;22.13;;;;;;;1.63;62.20;95404.78;5010168;28;20305;-63
2023/01/08 05:46:54;;;;;;;27.23;20.13;;;;;;;1.72;62.33;95402.50;5022294;28;20225;-63
2023/01/08 05:49:20;;;;;;;27.00;20.93;;;;;;;1.90;61.76;95400.63;5008985;28;20234;-62
2023/01/08 05:51:46;;;;;;;26.50;21.27;;;;;;;1.93;61.62;95400.44;5006871;28;20246;-62
2023/01/08 05:54:12;;;;;;;25.57;20.37;;;;;;;1.89;62.06;95387.72;5024329;28;20230;-62
2023/01/08 05:56:39;;;;;;;29.33;21.90;;;;;;;1.92;61.84;95395.31;5003387;28;20238;-62
2023/01/08 05:59:04;;;;;;;25.73;19.67;;;;;;;1.95;61.62;95396.00;5005024;28;20250;-62
2023/01/08 06:01:31;;;;;;;23.20;17.70;;;;;;;1.88;61.86;95396.44;5011797;28;20219;-62
2023/01/08 06:03:57;;;;;;;21.87;17.33;;;;;;;1.86;62.15;95398.28;5005120;28;20179;-63
2023/01/08 06:06:23;;;;;;;22.53;19.23;;;;;;;1.82;62.20;95394.19;5012391;28;20187;-62
2023/01/08 06:08:48;;;;;;;22.70;16.73;;;;;;;1.80;61.98;95404.66;5009073;28;20246;-62
2023/01/08 06:11:14;;;;;;;22.80;17.17;;;;;;;1.71;62.27;95400.00;4999462;28;20219;-63
2023/01/08 06:13:42;;;;;;;19.83;16.00;;;;;;;1.72;62.38;95405.09;5021206;28;20231;-63
2023/01/08 06:16:08;;;;;;;25.93;20.53;;;;;;;1.79;62.17;95402.16;5008164;28;20187;-63
2023/01/08 06:18:33;;;;;;;30.77;23.53;;;;;;;1.79;62.37;95402.97;5006120;28;20194;-63
2023/01/08 06:21:00;;;;;;;29.33;23.77;;;;;;;1.58;62.36;95399.91;5008772;28;20214;-62
2023/01/08 06:23:25;;;;;;;30.80;23.50;;;;;;;1.73;61.98;95406.75;5002308;28;20274;-63
2023/01/08 06:25:55;;;;;;;36.43;23.77;;;;;;;1.83;61.73;95406.25;4987574;28;20220;-62
2023/01/08 06:28:22;;;;;;;32.63;22.83;;;;;;;1.93;61.27;95407.38;4983354;28;20230;-63
2023/01/08 06:30:48;;;;;;;31.17;20.83;;;;;;;1.81;61.71;95401.13;5006181;28;20278;-62
2023/01/08 06:33:14;;;;;;;29.37;22.87;;;;;;;1.87;61.50;95416.38;5000254;28;20283;-62
2023/01/08 06:35:40;;;;;;;33.33;22.87;;;;;;;1.95;61.09;95411.56;4993783;28;20218;-63
2023/01/08 06:38:05;;;;;;;28.57;21.07;;;;;;;2.03;60.97;95420.63;4977240;28;20271;-63
2023/01/08 06:40:31;;;;;;;27.40;22.47;;;;;;;2.16;60.64;95421.56;4999793;28;20220;-63
2023/01/08 06:43:01;;;;;;;30.80;23.37;;;;;;;2.24;60.94;95429.75;4987950;28;20214;-64
2023/01/08 06:45:26;;;;;;;32.23;24.50;;;;;;;1.96;61.48;95430.53;4987446;28;20204;-63
2023/01/08 06:47:51;;;;;;;32.60;23.17;;;;;;;2.15;60.63;95431.13;4989435;28;20238;-63
2023/01/08 06:50:17;;;;;;;35.40;23.57;;;;;;;2.21;60.45;95433.34;4983774;28;20289;-62
2023/01/08 06:52:42;;;;;;;31.47;24.70;;;;;;;1.99;61.07;95427.75;4984410;28;20278;-62
2023/01/08 06:55:08;;;;;;;28.87;22.87;;;;;;;1.90;61.86;95436.09;4980552;28;20214;-62
2023/01/08 06:57:34;;;;;;;29.73;22.93;;;;;;;2.11;61.37;95434.84;4990490;28;20182;-62
2023/01/08 06:59:59;;;;;;;29.70;23.27;;;;;;;2.27;60.53;95426.97;4989961;28;20247;-62
2023/01/08 07:02:25;;;;;;;28.87;22.83;;;;;;;2.35;60.42;95421.31;4989246;28;20226;-63
2023/01/08 07:04:50;;;;;;;28.27;22.00;;;;;;;2.39;60.31;95438.38;4988345;28;20231;-62
2023/01/08 07:07:15;;;;;;;23.57;17.10;;;;;;;2.24;61.26;95428.91;4988517;28;20234;-63
2023/01/08 07:09:41;;;;;;;23.37;18.00;;;;;;;2.59;60.30;95431.97;4987012;28;20184;-62
2023/01/08 07:12:13;;;;;;;24.37;17.90;;;;;;;2.65;60.09;95429.84;4996446;28;20230;-62
2023/01/08 07:14:39;;;;;;;19.87;14.87;;;;;;;2.55;60.66;95440.91;5022644;28;20246;-63
2023/01/08 07:17:04;;;;;;;20.13;16.70;;;;;;;2.80;59.90;95448.00;5008865;28;20250;-63
2023/01/08 07:19:30;;;;;;;26.53;20.40;;;;;;;2.89;59.97;95442.28;5008829;28;20219;-63
2023/01/08 07:21:55;;;;;;;28.73;23.20;;;;;;;2.99;59.45;95438.16;5005309;28;20251;-62
2023/01/08 07:24:21;;;;;;;30.57;24.43;;;;;;;3.18;58.93;95440.47;5003907;28;20278;-63
2023/01/08 07:26:46;;;;;;;30.83;25.00;;;;;;;3.23;59.26;95440.16;5008536;28;20231;-63
2023/01/08 07:29:12;;;;;;;28.53;23.77;;;;;;;3.17;59.14;95437.94;5001654;28;20289;-63
2023/01/08 07:31:37;;;;;;;29.13;23.97;;;;;;;3.27;58.69;95445.06;5006794;28;20219;-63
2023/01/08 07:34:03;;;;;;;29.97;22.50;;;;;;;3.30;59.04;95444.03;4986816;28;20234;-63
2023/01/08 07:36:28;;;;;;;27.17;21.80;;;;;;;3.31;59.08;95437.91;4984672;28;20179;-63
2023/01/08 07:38:54;;;;;;;28.43;22.87;;;;;;;3.39;58.66;95435.63;4983725;28;20226;-63
2023/01/08 07:41:19;;;;;;;28.67;23.20;;;;;;;3.38;59.12;95449.59;4983985;28;20250;-63
2023/01/08 07:43:47;;;;;;;29.03;22.57;;;;;;;3.44;59.17;95443.97;4991085;28;20255;-63
2023/01/08 07:46:12;;;;;;;31.07;24.00;;;;;;;3.62;58.85;95451.56;4985471;28;20191;-64
2023/01/08 07:48:38;;;;;;;30.03;23.40;;;;;;;3.67;58.58;95446.88;5001741;28;20195;-63
2023/01/08 07:51:05;;;;;;;26.13;22.23;;;;;;;3.72;58.31;95444.81;5001487;28;20230;-63
2023/01/08 07:53:31;;;;;;;27.17;21.90;;;;;;;3.79;58.15;95446.06;5003358;28;20234;-62
2023/01/08 07:56:04;;;;;;;27.93;22.10;;;;;;;3.68;58.79;95451.16;5019768;28;20223;-64
2023/01/08 07:58:30;;;;;;;29.93;23.40;;;;;;;3.60;58.80;95445.59;5002775;28;20230;-62
2023/01/08 08:00:56;;;;;;;26.17;20.70;;;;;;;3.69;58.81;95447.63;5020145;28;20287;-62
2023/01/08 08:03:22;;;;;;;25.63;20.37;;;;;;;3.85;58.41;95453.50;5004585;28;20226;-61
2023/01/08 08:05:48;;;;;;;28.50;22.87;;;;;;;3.92;58.19;95452.16;5003158;28;20233;-62
2023/01/08 08:08:13;;;;;;;30.50;23.57;;;;;;;4.03;57.62;95456.66;5008991;28;20231;-62
2023/01/08 08:10:41;;;;;;;27.77;23.57;;;;;;;4.12;58.20;95456.06;5004296;28;20227;-63
2023/01/08 08:13:07;;;;;;;32.23;24.40;;;;;;;4.27;57.49;95450.75;5017575;28;20215;-63
2023/01/08 08:15:34;;;;;;;34.07;25.40;;;;;;;4.40;57.17;95446.38;4999921;28;20202;-62
2023/01/08 08:17:59;;;;;;;33.60;26.17;;;;;;;4.32;57.67;95446.91;4999696;28;20318;-63
2023/01/08 08:20:25;;;;;;;33.23;26.43;;;;;;;4.42;57.74;95454.94;5007144;28;20245;-64
2023/01/08 08:22:50;;;;;;;34.63;27.13;;;;;;;4.51;57.43;95446.47;4996658;28;20226;-64
2023/01/08 08:25:16;;;;;;;33.37;26.50;;;;;;;4.59;57.43;95452.00;5006726;28;20194;-64
2023/01/08 08:27:43;;;;;;;32.13;25.73;;;;;;;4.53;57.34;95449.81;5009533;28;20187;-64
2023/01/08 08:30:10;;;;;;;32.87;26.67;;;;;;;4.48;57.89;95459.72;5001434;28;20228;-64
2023/01/08 08:32:36;;;;;;;34.57;27.10;;;;;;;4.64;57.76;95451.69;4997396;28;20249;-64
2023/01/08 08:35:02;;;;;;;35.80;27.87;;;;;;;4.72;57.71;95449.41;5000922;28;20231;-64
2023/01/08 08:37:28;;;;;;;33.97;28.57;;;;;;;4.81;57.98;95453.13;5005597;28;20234;-64
2023/01/08 08:39:53;;;;;;;33.37;28.57;;;;;;;4.89;57.34;95455.22;5023410;28;20191;-64
2023/01/08 08:42:19;;;;;;;37.97;28.77;;;;;;;4.88;57.76;95453.56;5001597;28;20238;-65
2023/01/08 08:44:44;;;;;;;39.37;30.83;;;;;;;4.93;57.77;95454.91;5004575;28;20230;-64
2023/01/08 08:47:10;;;;;;;41.73;35.27;;;;;;;5.05;57.48;95442.78;5007847;28;20234;-64
2023/01/08 08:49:35;;;;;;;43.47;34.20;;;;;;;5.17;57.10;95454.97;5020351;28;20227;-64
2023/01/08 08:52:02;;;;;;;43.23;34.33;;;;;;;5.16;57.19;95448.09;5009517;28;20199;-64
2023/01/08 08:54:27;;;;;;;43.53;33.40;;;;;;;5.23;57.51;95456.28;5010150;28;20219;-63
2023/01/08 08:56:53;;;;;;;48.13;35.50;;;;;;;5.26;56.96;95443.88;5010107;28;20235;-63
2023/01/08 08:59:18;;;;;;;43.53;32.97;;;;;;;5.37;57.08;95455.31;5001455;28;20244;-64
2023/01/08 09:01:44;;;;;;;42.60;31.60;;;;;;;5.39;56.58;95449.03;5000078;28;20287;-63
2023/01/08 09:04:09;;;;;;;42.10;31.03;;;;;;;5.34;56.81;95451.16;5001554;28;20199;-64
2023/01/08 09:06:35;;;;;;;42.77;32.13;;;;;;;5.30;57.04;95445.31;5001781;28;20283;-64
2023/01/08 09:09:00;;;;;;;41.83;31.33;;;;;;;5.47;56.55;95448.50;5003777;28;20262;-64
2023/01/08 09:11:26;;;;;;;40.13;30.33;;;;;;;5.38;56.84;95438.75;4984104;28;20227;-64
2023/01/08 09:13:51;;;;;;;45.10;31.83;;;;;;;5.43;57.13;95440.06;4989580;28;20239;-63
2023/01/08 09:16:17;;;;;;;36.03;27.47;;;;;;;5.48;56.38;95427.53;4981347;28;20184;-64
2023/01/08 09:18:43;;;;;;;32.73;26.03;;;;;;;5.60;56.74;95420.59;5000807;28;20191;-64
2023/01/08 09:21:09;;;;;;;33.70;25.57;;;;;;;5.69;56.51;95427.75;4996981;28;20225;-64
2023/01/08 09:23:35;;;;;;;30.20;22.90;;;;;;;5.79;56.66;95424.47;5003481;28;20297;-63
2023/01/08 09:26:02;;;;;;;29.20;23.57;;;;;;;5.79;56.18;95429.69;5000984;28;20256;-63
2023/01/08 09:28:27;;;;;;;32.30;24.13;;;;;;;5.86;55.93;95429.13;4999006;28;20223;-63
2023/01/08 09:30:53;;;;;;;28.07;24.37;;;;;;;5.90;56.30;95429.72;4988638;28;20191;-63
2023/01/08 09:33:18;;;;;;;29.37;23.13;;;;;;;5.93;56.23;95419.06;5018697;28;20257;-63
2023/01/08 09:35:44;;;;;;;30.93;23.10;;;;;;;6.03;55.99;95411.41;5001873;28;20234;-63
2023/01/08 09:38:09;;;;;;;31.13;23.57;;;;;;;6.22;55.54;95410.88;4992432;28;20227;-63
2023/01/08 09:40:42;;;;;;;27.37;22.60;;;;;;;6.21;54.72;95404.81;4983454;28;20228;-63
2023/01/08 09:43:17;;;;;;;27.50;21.13;;;;;;;6.37;54.53;95405.31;4991320;28;20192;-64
2023/01/08 09:45:47;;;;;;;27.17;22.20;;;;;;;6.46;54.76;95401.16;5015814;28;20190;-64
2023/01/08 09:48:17;;;;;;;31.13;23.27;;;;;;;6.53;54.35;95396.31;5002710;28;20690;-63
2023/01/08 09:50:42;;;;;;;29.20;22.43;;;;;;;6.58;54.51;95395.00;5009895;28;20218;-64
2023/01/08 09:53:13;;;;;;;30.13;22.53;;;;;;;6.55;53.84;95370.91;5005122;28;20277;-64
2023/01/08 09:55:40;;;;;;;30.93;23.23;;;;;;;6.78;54.03;95382.19;5006357;28;20223;-64
2023/01/08 09:58:23;;;;;;;27.80;20.40;;;;;;;6.82;53.24;95375.78;5009834;28;20194;-65
2023/01/08 10:00:49;;;;;;;29.43;23.43;;;;;;;6.90;53.26;95372.56;5004683;28;20226;-64
2023/01/08 10:03:14;;;;;;;24.63;20.43;;;;;;;6.96;52.80;95367.66;5006852;28;20226;-64
2023/01/08 10:05:40;;;;;;;27.67;21.43;;;;;;;7.00;53.01;95363.88;5006858;28;20302;-64
2023/01/08 10:08:12;;;;;;;27.90;21.17;;;;;;;7.12;52.24;95353.38;5017775;28;20235;-64
2023/01/08 10:10:39;;;;;;;24.50;20.67;;;;;;;7.20;52.54;95358.84;5005947;28;20230;-64
2023/01/08 10:13:05;;;;;;;29.00;21.57;;;;;;;7.37;51.94;95347.81;4999943;28;20270;-64
2023/01/08 10:15:31;;;;;;;25.97;21.93;;;;;;;7.27;52.22;95353.00;5006024;28;20183;-65
2023/01/08 10:18:06;;;;;;;29.27;21.40;;;;;;;7.38;52.13;95346.91;5026010;28;20231;-64
2023/01/08 10:20:32;;;;;;;27.90;21.47;;;;;;;7.33;52.16;95346.44;5020254;28;20225;-64
2023/01/08 10:23:15;;;;;;;25.87;21.07;;;;;;;7.29;51.98;95342.38;5009173;28;20253;-63
2023/01/08 10:26:06;;;;;;;29.53;21.40;;;;;;;7.41;51.99;95338.78;4997930;28;20255;-63
2023/01/08 10:28:36;;;;;;;24.90;20.00;;;;;;;7.61;50.77;95338.94;4983120;28;20235;-64
2023/01/08 10:31:10;;;;;;;21.30;17.67;;;;;;;7.50;51.24;95331.97;5001325;28;20194;-64
2023/01/08 10:33:48;;;;;;;19.30;16.40;;;;;;;7.93;49.76;95324.00;5009511;28;20207;-63
2023/01/08 10:36:21;;;;;;;21.03;17.97;;;;;;;7.79;50.38;95324.34;5009828;28;20234;-63
2023/01/08 10:38:58;;;;;;;22.07;16.47;;;;;;;7.59;50.55;95319.91;5016895;28;20238;-63
2023/01/08 10:41:23;;;;;;;23.67;18.17;;;;;;;7.56;51.40;95309.69;4981508;28;20231;-64
2023/01/08 10:44:02;;;;;;;22.97;19.37;;;;;;;7.79;50.79;95308.63;4990671;28;20269;-64
2023/01/08 10:46:31;;;;;;;20.43;17.17;;;;;;;7.70;51.09;95302.38;4973711;28;20302;-63
2023/01/08 10:48:59;;;;;;;22.07;17.03;;;;;;;7.78;50.42;95304.38;4978430;28;20180;-64
2023/01/08 10:51:27;;;;;;;20.23;16.80;;;;;;;7.99;49.99;95293.03;5019513;28;20226;-63
2023/01/08 10:53:54;;;;;;;20.23;15.93;;;;;;;8.14;50.03;95295.19;4981843;28;20266;-64
2023/01/08 10:56:23;;;;;;;22.13;16.73;;;;;;;8.33;49.07;95286.59;4993765;28;20231;-64
2023/01/08 10:58:49;;;;;;;21.80;15.93;;;;;;;8.56;48.28;95292.53;5018307;28;20242;-64
2023/01/08 11:01:17;;;;;;;22.00;17.23;;;;;;;8.45;49.18;95286.56;5003934;28;20201;-64
2023/01/08 11:03:47;;;;;;;20.47;17.17;;;;;;;8.39;49.02;95286.13;5001692;28;20211;-64
2023/01/08 11:06:20;;;;;;;21.60;16.53;;;;;;;8.50;49.07;95279.09;5008112;28;20226;-64
2023/01/08 11:08:55;;;;;;;21.53;17.23;;;;;;;8.67;48.85;95269.81;4997882;28;20226;-64
2023/01/08 11:11:21;;;;;;;22.50;16.43;;;;;;;8.94;47.77;95272.63;5007756;28;20231;-64
2023/01/08 11:13:57;;;;;;;20.30;16.87;;;;;;;8.94;47.69;95277.84;5001120;28;20235;-64
2023/01/08 11:16:31;;;;;;;20.17;17.47;;;;;;;9.02;47.80;95269.31;5005231;28;20309;-64
2023/01/08 11:18:56;;;;;;;22.70;18.30;;;;;;;9.42;46.88;95271.00;5021615;28;20213;-65
2023/01/08 11:21:29;;;;;;;23.53;19.17;;;;;;;9.33;47.13;95266.56;5003221;28;20222;-64
2023/01/08 11:24:11;;;;;;;22.60;20.13;;;;;;;9.44;46.75;95261.19;5006928;28;20230;-64
2023/01/08 11:26:40;;;;;;;26.33;21.07;;;;;;;9.39;47.04;95266.03;4997982;28;20222;-64
2023/01/08 11:29:15;;;;;;;26.03;20.90;;;;;;;9.84;45.39;95265.44;5000938;28;20259;-65